Time;durP1;ratioP1;P1;durP2;ratioP2;P2;SDS_P1;SDS_P2;PMS_P1;PMS_P2;Temp;Humidity;BMP_temperature;BMP_pressure;BME280_temperature;BME280_humidity;BME280_pressure;Samples;Min_cycle;Max_cycle;Signal;HPM_P1;HPM_P2
2022/10/25 00:01:21;;;;;;;43.20;18.98;;;;;;;;;;5109128;28;20063;-71
2022/10/25 00:03:46;;;;;;;37.08;17.98;;;;;;;;;;5109919;28;20074;-71
2022/10/25 00:06:12;;;;;;;40.53;17.30;;;;;;;;;;5092260;28;20496;-71
2022/10/25 00:08:37;;;;;;;33.78;17.60;;;;;;;;;;5108550;28;20354;-71
2022/10/25 00:11:03;;;;;;;46.05;17.73;;;;;;;;;;5111037;28;20087;-71
2022/10/25 00:13:29;;;;;;;33.38;16.67;;;;;;;;;;5113329;28;20354;-72
2022/10/25 00:15:54;;;;;;;29.17;16.63;;;;;;;;;;5114505;28;20021;-72
2022/10/25 00:18:19;;;;;;;29.87;16.90;;;;;;;;;;5112845;28;20264;-71
2022/10/25 00:20:45;;;;;;;30.50;16.17;;;;;;;;;;5114846;28;20270;-72
2022/10/25 00:23:11;;;;;;;29.67;17.13;;;;;;;;;;5113991;28;20053;-71
2022/10/25 00:25:36;;;;;;;34.25;17.33;;;;;;;;;;5110559;28;20059;-72
2022/10/25 00:28:01;;;;;;;39.07;17.33;;;;;;;;;;5095662;28;20078;-72
2022/10/25 00:30:27;;;;;;;31.70;16.60;;;;;;;;;;5096088;28;20027;-71
2022/10/25 00:32:53;;;;;;;32.83;16.50;;;;;;;;;;5113628;28;20389;-71
2022/10/25 00:35:18;;;;;;;38.53;17.17;;;;;;;;;;5114133;28;20034;-71
2022/10/25 00:37:43;;;;;;;33.35;16.00;;;;;;;;;;5113038;28;20035;-71
2022/10/25 00:40:09;;;;;;;33.30;16.67;;;;;;;;;;5112752;28;20092;-72
2022/10/25 00:42:34;;;;;;;33.22;16.40;;;;;;;;;;5113260;28;20065;-72
2022/10/25 00:45:03;;;;;;;35.43;16.90;;;;;;;;;;5114228;28;20030;-72
2022/10/25 00:47:43;;;;;;;33.55;17.05;;;;;;;;;;5094781;28;20031;-72
2022/10/25 00:50:08;;;;;;;43.38;17.02;;;;;;;;;;5107715;28;20024;-72
2022/10/25 00:52:34;;;;;;;31.63;17.20;;;;;;;;;;5112918;28;20038;-71
2022/10/25 00:55:01;;;;;;;34.35;16.73;;;;;;;;;;5089953;28;20027;-72
2022/10/25 00:57:29;;;;;;;32.47;16.35;;;;;;;;;;5112258;28;20027;-71
2022/10/25 00:59:54;;;;;;;32.08;16.63;;;;;;;;;;5111408;28;20148;-72
2022/10/25 01:02:21;;;;;;;41.10;17.70;;;;;;;;;;5113334;28;20052;-72
2022/10/25 01:04:46;;;;;;;32.78;16.02;;;;;;;;;;5111138;28;20027;-72
2022/10/25 01:07:11;;;;;;;36.95;16.25;;;;;;;;;;5112738;28;20023;-72
2022/10/25 01:09:37;;;;;;;36.13;15.77;;;;;;;;;;5090739;28;20521;-72
2022/10/25 01:12:03;;;;;;;26.00;15.80;;;;;;;;;;5093394;28;20430;-72
2022/10/25 01:14:28;;;;;;;41.05;16.98;;;;;;;;;;5113438;28;20035;-72
2022/10/25 01:16:54;;;;;;;39.30;16.25;;;;;;;;;;5091160;28;20028;-72
2022/10/25 01:19:34;;;;;;;34.13;16.87;;;;;;;;;;5094433;28;20054;-72
2022/10/25 01:22:07;;;;;;;33.55;16.42;;;;;;;;;;5111902;28;20082;-71
2022/10/25 01:24:38;;;;;;;35.22;16.77;;;;;;;;;;5110076;28;20527;-72
2022/10/25 01:27:12;;;;;;;32.97;15.63;;;;;;;;;;5112368;28;20085;-71
2022/10/25 01:29:57;;;;;;;31.90;15.63;;;;;;;;;;5112639;28;20047;-72
2022/10/25 01:32:30;;;;;;;30.73;15.15;;;;;;;;;;5108756;28;20078;-72
2022/10/25 01:34:57;;;;;;;31.77;15.98;;;;;;;;;;5112202;28;20027;-72
2022/10/25 01:37:29;;;;;;;33.92;15.73;;;;;;;;;;5112874;28;20030;-71
2022/10/25 01:40:04;;;;;;;32.88;15.25;;;;;;;;;;5091347;28;20028;-72
2022/10/25 01:42:34;;;;;;;34.33;16.55;;;;;;;;;;5113113;28;20035;-72
2022/10/25 01:44:59;;;;;;;29.00;14.82;;;;;;;;;;5112728;28;20023;-72
2022/10/25 01:47:45;;;;;;;30.43;15.70;;;;;;;;;;5112818;28;20065;-72
2022/10/25 01:50:13;;;;;;;31.98;14.88;;;;;;;;;;5109929;28;20051;-72
2022/10/25 01:52:38;;;;;;;33.90;15.48;;;;;;;;;;5090784;28;20023;-72
2022/10/25 01:55:07;;;;;;;34.23;15.20;;;;;;;;;;5094433;28;20122;-72
2022/10/25 01:57:35;;;;;;;30.23;14.82;;;;;;;;;;5113378;28;20641;-72
2022/10/25 02:00:08;;;;;;;34.08;15.25;;;;;;;;;;5113882;28;20019;-72
2022/10/25 02:02:45;;;;;;;34.65;15.48;;;;;;;;;;5113312;28;20047;-72
2022/10/25 02:05:28;;;;;;;24.10;12.98;;;;;;;;;;5113548;28;20035;-73
2022/10/25 02:08:06;;;;;;;24.65;13.75;;;;;;;;;;5092496;28;20032;-73
2022/10/25 02:10:31;;;;;;;30.55;15.43;;;;;;;;;;5113365;28;20130;-71
2022/10/25 02:13:08;;;;;;;21.63;13.93;;;;;;;;;;5113849;28;20503;-71
2022/10/25 02:15:33;;;;;;;26.42;13.10;;;;;;;;;;5109182;28;20019;-71
2022/10/25 02:17:59;;;;;;;32.10;14.57;;;;;;;;;;5094917;28;20081;-71
2022/10/25 02:20:25;;;;;;;28.48;14.05;;;;;;;;;;5110404;28;20049;-71
2022/10/25 02:22:51;;;;;;;24.17;13.88;;;;;;;;;;5111070;28;20024;-71
2022/10/25 02:25:17;;;;;;;31.45;13.38;;;;;;;;;;5111890;28;20058;-71
2022/10/25 02:27:43;;;;;;;29.60;13.73;;;;;;;;;;5113183;28;20019;-71
2022/10/25 02:30:08;;;;;;;30.83;13.00;;;;;;;;;;5093557;28;20031;-71
2022/10/25 02:32:34;;;;;;;21.90;12.23;;;;;;;;;;5112598;28;20039;-71
2022/10/25 02:34:59;;;;;;;26.88;13.50;;;;;;;;;;5094558;28;20015;-71
2022/10/25 02:37:24;;;;;;;27.77;13.63;;;;;;;;;;5111459;28;20024;-70
2022/10/25 02:39:50;;;;;;;24.75;12.55;;;;;;;;;;5109615;28;20041;-70
2022/10/25 02:42:15;;;;;;;21.98;12.40;;;;;;;;;;5112182;28;20024;-70
2022/10/25 02:44:40;;;;;;;27.10;12.53;;;;;;;;;;5111581;28;20019;-71
2022/10/25 02:47:06;;;;;;;26.35;13.98;;;;;;;;;;5094727;28;20039;-71
2022/10/25 02:49:31;;;;;;;29.50;12.65;;;;;;;;;;5103065;28;20020;-71
2022/10/25 02:51:56;;;;;;;28.70;13.45;;;;;;;;;;5111918;28;20030;-70
2022/10/25 02:54:22;;;;;;;30.93;13.40;;;;;;;;;;5110051;28;20080;-71
2022/10/25 02:56:51;;;;;;;24.33;12.95;;;;;;;;;;5093462;28;20038;-71
2022/10/25 02:59:16;;;;;;;26.95;14.82;;;;;;;;;;5098017;28;20528;-72
2022/10/25 03:01:42;;;;;;;36.13;15.77;;;;;;;;;;5111129;28;20123;-71
2022/10/25 03:04:07;;;;;;;32.30;17.07;;;;;;;;;;5111987;28;20022;-72
2022/10/25 03:06:32;;;;;;;28.50;15.27;;;;;;;;;;5091239;28;20276;-72
2022/10/25 03:08:57;;;;;;;34.50;14.67;;;;;;;;;;5108417;28;20318;-72
2022/10/25 03:11:23;;;;;;;31.30;15.43;;;;;;;;;;5110704;28;20064;-72
2022/10/25 03:13:48;;;;;;;31.87;14.93;;;;;;;;;;5111456;28;20023;-73
2022/10/25 03:16:13;;;;;;;32.17;15.98;;;;;;;;;;5112684;28;20268;-72
2022/10/25 03:18:38;;;;;;;30.57;13.90;;;;;;;;;;5112109;28;20465;-73
2022/10/25 03:21:04;;;;;;;31.10;14.57;;;;;;;;;;5088034;28;20032;-71
2022/10/25 03:23:29;;;;;;;26.60;13.88;;;;;;;;;;5111718;28;20043;-72
2022/10/25 03:25:55;;;;;;;37.23;13.90;;;;;;;;;;5112466;28;20035;-73
2022/10/25 03:28:21;;;;;;;22.98;12.95;;;;;;;;;;5110687;28;20027;-73
2022/10/25 03:30:46;;;;;;;25.90;13.60;;;;;;;;;;5108621;28;20030;-72
2022/10/25 03:33:11;;;;;;;27.65;13.55;;;;;;;;;;5110244;28;20676;-72
2022/10/25 03:35:36;;;;;;;32.90;13.70;;;;;;;;;;5092321;28;20105;-73
2022/10/25 03:38:02;;;;;;;26.27;13.07;;;;;;;;;;5108841;28;20024;-72
2022/10/25 03:40:27;;;;;;;27.67;13.43;;;;;;;;;;5110446;28;20077;-72
2022/10/25 03:42:52;;;;;;;25.57;13.30;;;;;;;;;;5109213;28;20300;-72
2022/10/25 03:45:19;;;;;;;34.03;14.00;;;;;;;;;;5110453;28;20028;-71
2022/10/25 03:47:44;;;;;;;24.25;13.38;;;;;;;10.93;nan;100637.13;5105257;28;20055;-71
2022/10/25 03:50:10;;;;;;;25.77;13.35;;;;;;;;;;5106576;28;20067;-70
2022/10/25 03:52:35;;;;;;;24.15;13.10;;;;;;;;;;5091118;28;20392;-71
2022/10/25 03:55:00;;;;;;;27.40;13.00;;;;;;;;;;5110107;28;20110;-72
2022/10/25 03:57:26;;;;;;;30.10;12.97;;;;;;;;;;5108268;28;20086;-72
2022/10/25 03:59:51;;;;;;;28.85;12.90;;;;;;;;;;5109797;28;20049;-71
2022/10/25 04:02:16;;;;;;;31.10;13.37;;;;;;;;;;5106095;28;20028;-72
2022/10/25 04:04:41;;;;;;;28.85;15.82;;;;;;;;;;5109805;28;20027;-71
2022/10/25 04:07:07;;;;;;;40.93;21.63;;;;;;;;;;5109155;28;20061;-72
2022/10/25 04:09:32;;;;;;;55.17;27.52;;;;;;;;;;5106626;28;20030;-71
2022/10/25 04:11:58;;;;;;;57.92;30.27;;;;;;;;;;5090747;28;20027;-72
2022/10/25 04:14:23;;;;;;;35.60;20.60;;;;;;;;;;5110242;28;20074;-72
2022/10/25 04:16:48;;;;;;;37.87;18.80;;;;;;;;;;5109147;28;20305;-71
2022/10/25 04:19:13;;;;;;;31.73;15.93;;;;;;;;;;5089879;28;20832;-72
2022/10/25 04:21:39;;;;;;;33.05;16.05;;;;;;;;;;5105213;28;20055;-72
2022/10/25 04:24:04;;;;;;;30.25;14.27;;;;;;;;;;5108007;28;20516;-71
2022/10/25 04:26:30;;;;;;;22.90;13.10;;;;;;;;;;5110302;28;20381;-72
2022/10/25 04:28:55;;;;;;;26.88;13.70;;;;;;;;;;5111121;28;20024;-71
2022/10/25 04:31:21;;;;;;;28.07;13.60;;;;;;;;;;5109490;28;20441;-72
2022/10/25 04:33:50;;;;;;;24.98;13.77;;;;;;;;;;5092249;28;20031;-72
2022/10/25 04:36:15;;;;;;;26.30;12.82;;;;;;;;;;5108590;28;20182;-72
2022/10/25 04:38:41;;;;;;;29.77;12.63;;;;;;;;;;5091068;28;20102;-72
2022/10/25 04:41:06;;;;;;;27.93;13.40;;;;;;;;;;5092245;28;20493;-72
2022/10/25 04:43:31;;;;;;;25.75;12.32;;;;;;;;;;5109013;28;20280;-71
2022/10/25 04:46:00;;;;;;;24.67;12.77;;;;;;;;;;5107044;28;20051;-72
2022/10/25 04:48:25;;;;;;;34.65;15.70;;;;;;;;;;5109936;28;20362;-72
2022/10/25 04:50:51;;;;;;;1301.47;206.30;;;;;;;;;;5108737;28;20097;-72
2022/10/25 04:53:16;;;;;;;55.42;27.92;;;;;;;;;;5109075;28;20020;-72
2022/10/25 04:55:42;;;;;;;55.43;25.23;;;;;;;;;;5093207;28;20107;-72
2022/10/25 04:58:07;;;;;;;54.65;23.77;;;;;;;;;;5108080;28;20029;-72
2022/10/25 05:00:32;;;;;;;50.47;22.93;;;;;;;;;;5109751;28;20028;-72
2022/10/25 05:02:57;;;;;;;48.83;23.37;;;;;;;;;;5112693;28;20477;-72
2022/10/25 05:05:23;;;;;;;41.87;22.43;;;;;;;;;;5108707;28;20276;-72
2022/10/25 05:07:49;;;;;;;45.20;22.42;;;;;;;;;;5114199;28;20024;-72
2022/10/25 05:10:14;;;;;;;50.57;22.83;;;;;;;;;;5108846;28;20081;-72
2022/10/25 05:12:39;;;;;;;51.30;22.77;;;;;;;;;;5094471;28;20267;-72
2022/10/25 05:15:05;;;;;;;43.05;22.42;;;;;;;;;;5109596;28;20031;-72
2022/10/25 05:17:30;;;;;;;44.63;22.70;;;;;;;;;;5107820;28;20023;-71
2022/10/25 05:19:56;;;;;;;38.40;21.75;;;;;;;;;;5112786;28;20524;-71
2022/10/25 05:22:21;;;;;;;51.95;23.75;;;;;;;;;;5107453;28;20039;-72
2022/10/25 05:24:46;;;;;;;41.23;22.47;;;;;;;;;;5110955;28;20523;-71
2022/10/25 05:27:11;;;;;;;55.92;22.42;;;;;;;;;;5112760;28;20051;-72
2022/10/25 05:29:37;;;;;;;44.25;22.65;;;;;;;;;;5112268;28;20481;-72
2022/10/25 05:32:02;;;;;;;47.35;21.67;;;;;;;;;;5091378;28;20154;-72
2022/10/25 05:34:27;;;;;;;45.22;19.85;;;;;;;;;;5091374;28;20031;-72
2022/10/25 05:36:53;;;;;;;41.00;18.63;;;;;;;;;;5112524;28;20473;-70
2022/10/25 05:39:18;;;;;;;43.87;18.43;;;;;;;;;;5111494;28;20473;-71
2022/10/25 05:41:43;;;;;;;37.50;18.33;;;;;;;;;;5112303;28;20271;-72
2022/10/25 05:44:09;;;;;;;44.47;17.05;;;;;;;;;;5093547;28;20024;-72
2022/10/25 05:46:34;;;;;;;40.08;16.83;;;;;;;;;;5111608;28;20035;-72
2022/10/25 05:48:59;;;;;;;49.17;17.27;;;;;;;;;;5109544;28;20024;-72
2022/10/25 05:51:26;;;;;;;43.83;17.07;;;;;;;;;;5112936;28;20107;-72
2022/10/25 05:53:56;;;;;;;53.20;17.42;;;;;;;;;;5093392;28;20345;-72
2022/10/25 05:56:22;;;;;;;41.53;16.00;;;;;;;;;;5112302;28;20027;-72
2022/10/25 05:58:48;;;;;;;35.40;16.98;;;;;;;;;;5091563;28;20022;-71
2022/10/25 06:01:14;;;;;;;33.88;17.20;;;;;;;;;;5112386;28;20095;-72
2022/10/25 06:03:39;;;;;;;36.80;20.02;;;;;;;;;;5092975;28;20031;-72
2022/10/25 06:06:06;;;;;;;41.67;18.57;;;;;;;;;;5090851;28;20019;-72
2022/10/25 06:08:32;;;;;;;42.67;19.88;;;;;;;;;;5092530;28;20360;-72
2022/10/25 06:11:04;;;;;;;48.88;22.73;;;;;;;;;;5111814;28;20015;-72
2022/10/25 06:13:30;;;;;;;57.85;27.08;;;;;;;;;;5109991;28;20504;-72
2022/10/25 06:15:55;;;;;;;71.85;31.30;;;;;;;;;;5109712;28;20019;-72
2022/10/25 06:18:20;;;;;;;88.32;33.50;;;;;;;;;;5107846;28;20036;-72
2022/10/25 06:20:45;;;;;;;95.65;36.50;;;;;;;;;;5110223;28;20031;-72
2022/10/25 06:23:11;;;;;;;103.27;36.90;;;;;;;;;;5110630;28;20031;-72
2022/10/25 06:25:36;;;;;;;106.45;37.65;;;;;;;;;;5088211;28;20859;-72
2022/10/25 06:28:01;;;;;;;107.50;37.83;;;;;;;;;;5109955;28;20617;-72
2022/10/25 06:30:27;;;;;;;105.43;37.28;;;;;;;;;;5094658;28;20392;-73
2022/10/25 06:32:53;;;;;;;114.60;39.93;;;;;;;;;;5110647;28;20046;-73
2022/10/25 06:35:18;;;;;;;99.10;36.08;;;;;;;;;;5092492;28;20023;-72
2022/10/25 06:37:43;;;;;;;104.33;36.23;;;;;;;;;;5098146;28;20084;-72
2022/10/25 06:40:09;;;;;;;93.33;35.03;;;;;;;;;;5109702;28;20303;-72
2022/10/25 06:42:34;;;;;;;95.82;34.85;;;;;;;;;;5110358;28;20020;-73
2022/10/25 06:44:59;;;;;;;90.97;34.40;;;;;;;;;;5110586;28;20027;-73
2022/10/25 06:47:24;;;;;;;97.37;34.73;;;;;;;;;;5109081;28;20055;-72
2022/10/25 06:49:50;;;;;;;80.85;33.72;;;;;;;;;;5110152;28;20279;-73
2022/10/25 06:52:15;;;;;;;97.03;34.07;;;;;;;;;;5109847;28;20019;-73
2022/10/25 06:54:40;;;;;;;85.20;33.93;;;;;;;;;;5111008;28;21269;-72
2022/10/25 06:57:05;;;;;;;90.63;33.30;;;;;;;;;;5091963;28;20283;-72
2022/10/25 06:59:31;;;;;;;84.47;32.58;;;;;;;;;;5110247;28;20034;-72
2022/10/25 07:01:56;;;;;;;76.83;29.70;;;;;;;;;;5106937;28;20350;-72
2022/10/25 07:04:21;;;;;;;67.87;28.40;;;;;;;;;;5110672;28;20081;-72
2022/10/25 07:06:46;;;;;;;62.50;26.88;;;;;;;;;;5109394;28;20076;-72
2022/10/25 07:09:12;;;;;;;62.53;26.53;;;;;;;;;;5106340;28;20136;-72
2022/10/25 07:11:37;;;;;;;62.80;26.60;;;;;;;;;;5104941;28;20132;-72
2022/10/25 07:14:03;;;;;;;57.95;26.75;;;;;;;;;;5085254;28;20280;-72
2022/10/25 07:16:29;;;;;;;55.47;23.95;;;;;;;;;;5090959;28;20026;-71
2022/10/25 07:18:58;;;;;;;51.50;24.35;;;;;;;;;;5110858;28;20039;-72
2022/10/25 07:21:23;;;;;;;47.20;23.63;;;;;;;;;;5108961;28;20424;-72
2022/10/25 07:23:49;;;;;;;49.73;23.07;;;;;;;;;;5110016;28;20051;-72
2022/10/25 07:26:18;;;;;;;43.95;21.70;;;;;;;;;;5110755;28;20035;-72
2022/10/25 07:28:43;;;;;;;;;;;;;;;;;;5093326;28;20027;-72
2022/10/25 07:31:13;;;;;;;44.13;22.40;;;;;;;;;;5089459;28;19961;-71
2022/10/25 07:33:38;;;;;;;;;;;;;;;;;;5108352;28;20034;-72
2022/10/25 07:36:03;;;;;;;44.17;21.88;;;;;;;;;;5090447;28;20280;-71
2022/10/25 07:38:28;;;;;;;41.23;21.43;;;;;;;;;;5109115;28;20027;-72
2022/10/25 07:40:55;;;;;;;49.27;24.70;;;;;;;;;;5107895;28;20769;-71
2022/10/25 07:43:20;;;;;;;50.83;23.77;;;;;;;;;;5105385;28;20143;-71
2022/10/25 07:45:46;;;;;;;45.90;23.90;;;;;;;;;;5109562;28;20040;-71
2022/10/25 07:48:11;;;;;;;47.63;23.83;;;;;;;;;;5110839;28;20030;-71
2022/10/25 07:50:36;;;;;;;45.80;22.10;;;;;;;;;;5108499;28;20280;-72
2022/10/25 07:53:01;;;;;;;45.13;22.07;;;;;;;;;;5110855;28;20019;-70
2022/10/25 07:55:26;;;;;;;45.00;22.87;;;;;;;;;;5090143;28;20034;-72
2022/10/25 07:57:57;;;;;;;41.97;22.73;;;;;;;;;;5092314;28;20622;-71
2022/10/25 08:00:23;;;;;;;47.97;21.92;;;;;;;;;;5108811;28;20092;-72
2022/10/25 08:02:48;;;;;;;43.23;22.00;;;;;;;;;;5104106;28;20024;-72
2022/10/25 08:05:13;;;;;;;41.13;22.00;;;;;;;;;;5089252;28;20276;-72
2022/10/25 08:07:38;;;;;;;39.70;21.67;;;;;;;;;;5104837;28;20019;-72
2022/10/25 08:10:04;;;;;;;41.10;21.57;;;;;;;;;;5105587;28;20285;-72
2022/10/25 08:12:29;;;;;;;46.65;21.58;;;;;;;;;;5107883;28;20027;-72
2022/10/25 08:14:54;;;;;;;38.70;20.83;;;;;;;;;;5105729;28;20024;-72
2022/10/25 08:17:19;;;;;;;41.37;20.87;;;;;;;;;;5108381;28;20027;-71
2022/10/25 08:19:45;;;;;;;43.50;20.63;;;;;;;;;;5097891;28;20774;-71
2022/10/25 08:22:10;;;;;;;47.37;20.27;;;;;;;;;;5108622;28;20027;-71
2022/10/25 08:24:37;;;;;;;38.87;19.50;;;;;;;;;;5106407;28;20784;-71
2022/10/25 08:27:02;;;;;;;93.85;23.80;;;;;;;;;;5091975;28;20103;-70
2022/10/25 08:29:27;;;;;;;38.03;19.13;;;;;;;;;;5109561;28;20111;-70
2022/10/25 08:31:53;;;;;;;43.13;20.47;;;;;;;;;;5113581;28;20272;-70
2022/10/25 08:34:18;;;;;;;38.13;19.83;;;;;;;;;;5110271;28;20541;-70
2022/10/25 08:36:43;;;;;;;40.33;19.37;;;;;;;;;;5112805;28;20508;-70
2022/10/25 08:39:08;;;;;;;33.30;17.33;;;;;;;;;;5093726;28;20108;-71
2022/10/25 08:41:44;;;;;;;33.63;18.23;;;;;;;;;;5112211;28;20051;-71
2022/10/25 08:44:12;;;;;;;32.05;18.10;;;;;;;;;;5094234;28;20020;-71
2022/10/25 08:46:47;;;;;;;34.55;18.13;;;;;;;;;;5111990;28;20020;-71
2022/10/25 08:49:18;;;;;;;31.63;17.88;;;;;;;;;;5110320;28;20485;-71
2022/10/25 08:51:45;;;;;;;33.95;17.58;;;;;;;;;;5111233;28;20036;-70
2022/10/25 08:54:16;;;;;;;32.17;16.70;;;;;;;;;;5110104;28;20114;-70
2022/10/25 08:56:42;;;;;;;32.47;16.38;;;;;;;;;;5113349;28;20023;-70
2022/10/25 08:59:09;;;;;;;36.15;17.20;;;;;;;;;;5112099;28;20020;-69
2022/10/25 09:01:39;;;;;;;30.00;16.80;;;;;;;;;;5099449;28;20337;-70
2022/10/25 09:04:04;;;;;;;31.63;16.83;;;;;;;;;;5110144;28;20053;-70
2022/10/25 09:06:42;;;;;;;32.55;17.38;;;;;;;;;;5112322;28;20020;-70
2022/10/25 09:09:07;;;;;;;34.67;16.90;;;;;;;;;;5111932;28;20023;-71
2022/10/25 09:11:32;;;;;;;31.30;17.23;;;;;;;;;;5112382;28;20138;-72
2022/10/25 09:14:07;;;;;;;33.67;17.00;;;;;;;;;;5112224;28;20035;-71
2022/10/25 09:16:48;;;;;;;31.15;17.23;;;;;;;;;;5108865;28;20111;-70
2022/10/25 09:19:19;;;;;;;34.03;17.33;;;;;;;;;;5112148;28;20019;-70
2022/10/25 09:21:50;;;;;;;33.72;16.50;;;;;;;;;;5111136;28;20477;-71
2022/10/25 09:24:26;;;;;;;31.88;16.92;;;;;;;;;;5109589;28;20055;-70
2022/10/25 09:27:05;;;;;;;29.20;15.55;;;;;;;;;;5107845;28;20035;-70
2022/10/25 09:29:31;;;;;;;;;;;;;;;;;;5110809;28;20024;-70
2022/10/25 09:31:57;;;;;;;30.08;15.02;;;;;;;;;;5110765;28;20285;-70
2022/10/25 09:34:23;;;;;;;28.45;15.25;;;;;;;;;;5112187;28;20051;-70
2022/10/25 09:37:02;;;;;;;28.02;15.38;;;;;;;;;;5112933;28;20055;-70
2022/10/25 09:39:50;;;;;;;30.63;16.50;;;;;;;;;;5107554;28;20024;-69
2022/10/25 09:42:45;;;;;;;31.08;16.67;;;;;;;;;;5009914;28;20124;-71
2022/10/25 09:45:19;;;;;;;29.77;15.85;;;;;;;;;;5017626;28;20068;-71
2022/10/25 09:47:49;;;;;;;29.70;15.55;;;;;;;;;;5028086;28;20037;-70
2022/10/25 09:50:15;;;;;;;31.95;15.60;;;;;;;;;;5030470;28;20117;-70
2022/10/25 09:52:52;;;;;;;30.42;15.75;;;;;;;;;;5030316;28;20454;-70
2022/10/25 09:55:29;;;;;;;24.48;13.45;;;;;;;;;;5030280;28;20041;-71
2022/10/25 09:57:54;;;;;;;26.88;13.05;;;;;;;15.00;nan;100901.06;5030211;28;20525;-70
2022/10/25 10:00:19;;;;;;;25.70;13.63;;;;;;;;;;5033275;28;20033;-71
2022/10/25 10:02:45;;;;;;;27.52;14.27;;;;;;;;;;5029764;28;20408;-71
2022/10/25 10:05:17;;;;;;;24.23;13.40;;;;;;;;;;5028671;28;20442;-70
2022/10/25 10:07:43;;;;;;;23.90;13.15;;;;;;;;;;5028427;28;20834;-71
2022/10/25 10:10:19;;;;;;;27.02;13.93;;;;;;;;;;5029336;28;20080;-71
2022/10/25 10:12:48;;;;;;;24.60;13.20;;;;;;;;;;5027022;28;20048;-70
2022/10/25 10:15:27;;;;;;;24.50;13.18;;;;;;;;;;5028082;28;20041;-70
2022/10/25 10:18:11;;;;;;;24.70;12.13;;;;;;;;;;5028218;28;20116;-70
2022/10/25 10:20:36;;;;;;;25.08;12.10;;;;;;;;;;5111430;28;20095;-71
2022/10/25 10:23:01;;;;;;;27.17;12.32;;;;;;;;;;5111021;28;20537;-70
2022/10/25 10:25:27;;;;;;;23.42;12.48;;;;;;;;;;5110432;28;20063;-71
2022/10/25 10:27:54;;;;;;;25.13;12.18;;;;;;;;;;5108866;28;20403;-70
2022/10/25 10:30:24;;;;;;;24.90;12.10;;;;;;;;;;5111211;28;20027;-70
2022/10/25 10:32:54;;;;;;;22.67;13.15;;;;;;;;;;5107393;28;20020;-70
2022/10/25 10:35:27;;;;;;;22.40;12.73;;;;;;;;;;5110234;28;20019;-71
2022/10/25 10:38:11;;;;;;;21.52;12.32;;;;;;;;;;5106865;28;20024;-70
2022/10/25 10:40:36;;;;;;;23.75;12.95;;;;;;;;;;5092942;28;20019;-70
2022/10/25 10:43:20;;;;;;;26.97;15.00;;;;;;;;;;5110518;28;20019;-71
2022/10/25 10:45:49;;;;;;;26.52;14.00;;;;;;;;;;5094912;28;20024;-71
2022/10/25 10:48:19;;;;;;;28.40;14.02;;;;;;;;;;5108646;28;20031;-71
2022/10/25 10:50:51;;;;;;;28.80;14.38;;;;;;;;;;5107677;28;20032;-71
2022/10/25 10:53:21;;;;;;;30.25;14.90;;;;;;;;;;5110499;28;20147;-70
2022/10/25 10:55:48;;;;;;;25.83;13.63;;;;;;;;;;5095499;28;20015;-71
2022/10/25 10:58:22;;;;;;;25.48;13.68;;;;;;;;;;5110384;28;20115;-71
2022/10/25 11:00:55;;;;;;;21.90;12.68;;;;;;;;;;5106591;28;20376;-70
2022/10/25 11:03:36;;;;;;;26.27;13.27;;;;;;;;;;5108049;28;20649;-70
2022/10/25 11:06:04;;;;;;;23.55;13.65;;;;;;;15.43;nan;100891.63;5089475;28;20043;-70
2022/10/25 11:08:30;;;;;;;26.48;13.93;;;;;;;;;;5104890;28;20027;-70
2022/10/25 11:11:15;;;;;;;27.23;14.50;;;;;;;;;;5109749;28;20035;-71
2022/10/25 11:13:48;;;;;;;26.00;13.70;;;;;;;;;;5090385;28;20035;-70
2022/10/25 11:16:43;;;;;;;24.05;13.65;;;;;;;;;;5110828;28;20038;-70
2022/10/25 11:19:14;;;;;;;25.27;13.10;;;;;;;;;;5093072;28;20020;-70
2022/10/25 11:21:39;;;;;;;25.83;13.35;;;;;;;;;;5106337;28;20624;-71
2022/10/25 11:24:05;;;;;;;24.73;12.70;;;;;;;;;;5092533;28;20043;-71
2022/10/25 11:26:49;;;;;;;27.27;13.37;;;;;;;;;;5109924;28;20026;-70
2022/10/25 11:29:29;;;;;;;24.92;14.15;;;;;;;;;;5108183;28;20072;-71
2022/10/25 11:32:13;;;;;;;28.52;13.88;;;;;;;;;;5108901;28;20024;-70
2022/10/25 11:34:47;;;;;;;24.63;13.75;;;;;;;;;;5104642;28;20028;-70
2022/10/25 11:37:21;;;;;;;24.85;14.05;;;;;;;;;;5107490;28;20031;-71
2022/10/25 11:39:52;;;;;;;26.02;13.90;;;;;;;;;;5109367;28;20504;-70
2022/10/25 11:42:17;;;;;;;27.58;13.40;;;;;;;;;;5109472;28;20024;-70
2022/10/25 11:45:01;;;;;;;26.23;14.33;;;;;;;;;;5107951;28;20031;-70
2022/10/25 11:47:36;;;;;;;25.15;13.35;;;;;;;;;;5106572;28;20023;-71
2022/10/25 11:50:12;;;;;;;21.17;13.48;;;;;;;;;;5086758;28;20382;-69
2022/10/25 11:52:43;;;;;;;26.15;14.40;;;;;;;;;;5110294;28;20019;-70
2022/10/25 11:55:27;;;;;;;24.17;13.48;;;;;;;;;;5104266;28;20035;-71
2022/10/25 11:58:15;;;;;;;25.55;13.68;;;;;;;;;;5110393;28;20012;-69
2022/10/25 12:00:59;;;;;;;26.77;13.30;;;;;;;;;;5106255;28;20031;-70
2022/10/25 12:03:33;;;;;;;25.13;14.48;;;;;;;;;;5106966;28;20598;-69
2022/10/25 12:05:58;;;;;;;25.85;14.15;;;;;;;;;;5093067;28;20106;-70
2022/10/25 12:08:36;;;;;;;24.43;13.60;;;;;;;;;;5112503;28;20111;-70
2022/10/25 12:11:05;;;;;;;30.17;14.63;;;;;;;;;;5109220;28;20019;-70
2022/10/25 12:13:35;;;;;;;27.95;15.30;;;;;;;;;;5111677;28;20020;-70
2022/10/25 12:16:01;;;;;;;30.25;14.95;;;;;;;;;;5096276;28;20114;-70
2022/10/25 12:18:32;;;;;;;29.40;15.10;;;;;;;;;;5109416;28;20023;-71
2022/10/25 12:20:58;;;;;;;27.60;14.80;;;;;;;;;;5110628;28;20023;-70
2022/10/25 12:23:25;;;;;;;26.85;14.15;;;;;;;;;;5095580;28;20154;-71
2022/10/25 12:25:57;;;;;;;28.42;14.00;;;;;;;15.75;nan;100885.66;5095507;28;20638;-71
2022/10/25 12:28:25;;;;;;;31.02;15.30;;;;;;;;;;5113707;28;20050;-71
2022/10/25 12:30:53;;;;;;;27.27;14.02;;;;;;;;;;5110110;28;20026;-70
2022/10/25 12:33:36;;;;;;;29.35;15.27;;;;;;;;;;5099654;28;20562;-70
2022/10/25 12:36:21;;;;;;;26.17;13.63;;;;;;;;;;5101762;28;20028;-70
2022/10/25 12:38:47;;;;;;;29.63;14.13;;;;;;;;;;5092512;28;20016;-70
2022/10/25 12:41:16;;;;;;;24.50;14.37;;;;;;;;;;5109214;28;20465;-70
2022/10/25 12:43:42;;;;;;;27.48;13.90;;;;;;;;;;5108992;27;20030;-69
2022/10/25 12:46:15;;;;;;;28.83;14.83;;;;;;;;;;5115169;27;20024;-70
2022/10/25 12:48:43;;;;;;;25.15;13.57;;;;;;;;;;5094171;28;20020;-70
2022/10/25 12:51:20;;;;;;;27.90;13.93;;;;;;;;;;5110250;28;20024;-70
2022/10/25 12:53:45;;;;;;;28.80;14.18;;;;;;;;;;5103589;28;20116;-70
2022/10/25 12:56:13;;;;;;;26.55;14.65;;;;;;;;;;5095160;28;20035;-70
2022/10/25 12:58:57;;;;;;;32.53;14.30;;;;;;;;;;5110003;28;20016;-70
2022/10/25 13:01:32;;;;;;;26.92;13.10;;;;;;;;;;5093616;28;20023;-70
2022/10/25 13:04:06;;;;;;;26.63;13.80;;;;;;;;;;5104507;28;20027;-70
2022/10/25 13:06:36;;;;;;;26.73;14.07;;;;;;;;;;5091210;28;20031;-70
2022/10/25 13:09:04;;;;;;;28.25;13.15;;;;;;;;;;5107676;28;20473;-71
2022/10/25 13:11:34;;;;;;;26.00;13.43;;;;;;;;;;5110699;28;20032;-70
2022/10/25 13:14:00;;;;;;;29.23;12.48;;;;;;;;;;5109054;28;20023;-71
2022/10/25 13:16:28;;;;;;;25.13;13.57;;;;;;;;;;5108428;28;20489;-71
2022/10/25 13:19:11;;;;;;;28.65;13.82;;;;;;;;;;5111364;28;20095;-71
2022/10/25 13:21:52;;;;;;;29.92;15.48;;;;;;;;;;5105843;28;20035;-71
2022/10/25 13:24:35;;;;;;;25.88;15.02;;;;;;;;;;5107950;28;20058;-71
2022/10/25 13:27:12;;;;;;;29.77;15.60;;;;;;;;;;5112901;28;20086;-70
2022/10/25 13:29:47;;;;;;;27.63;14.05;;;;;;;;;;5106789;28;20066;-69
2022/10/25 13:32:19;;;;;;;26.13;13.98;;;;;;;;;;5089347;28;20047;-70
2022/10/25 13:34:44;;;;;;;32.40;16.15;;;;;;;;;;5090001;28;20564;-71
2022/10/25 13:37:29;;;;;;;30.88;15.25;;;;;;;;;;5108501;28;20110;-70
2022/10/25 13:39:55;;;;;;;28.02;14.43;;;;;;;;;;5107524;28;20118;-71
2022/10/25 13:42:31;;;;;;;26.50;14.65;;;;;;;;;;5107966;28;20443;-71
2022/10/25 13:44:56;;;;;;;24.58;12.98;;;;;;;;;;5105327;28;20053;-71
2022/10/25 13:47:30;;;;;;;30.53;13.87;;;;;;;;;;5110230;28;20048;-71
2022/10/25 13:49:56;;;;;;;26.33;13.73;;;;;;;;;;5109767;28;20035;-71
2022/10/25 13:52:27;;;;;;;30.08;14.38;;;;;;;;;;5088609;28;20035;-71
2022/10/25 13:54:54;;;;;;;22.05;12.57;;;;;;;;;;5107123;28;20046;-71
2022/10/25 13:57:38;;;;;;;26.88;14.05;;;;;;;;;;5109768;28;20020;-71
2022/10/25 14:00:09;;;;;;;25.73;13.57;;;;;;;;;;5106409;28;20024;-71
2022/10/25 14:02:54;;;;;;;27.48;14.10;;;;;;;;;;5106418;28;20498;-71
2022/10/25 14:05:39;;;;;;;28.02;13.75;;;;;;;;;;5088422;28;20027;-71
2022/10/25 14:08:19;;;;;;;25.45;13.20;;;;;;;;;;5101731;28;20028;-71
2022/10/25 14:10:46;;;;;;;32.15;13.25;;;;;;;;;;5105462;28;20115;-70
2022/10/25 14:13:15;;;;;;;28.60;14.02;;;;;;;;;;5107937;28;20028;-71
2022/10/25 14:15:40;;;;;;;;;;;;;;;;;;5107051;28;20027;-70
2022/10/25 14:18:06;;;;;;;33.30;15.07;;;;;;;;;;5110387;28;19911;-71
2022/10/25 14:20:33;;;;;;;30.45;15.88;;;;;;;;;;5108949;28;20023;-69
2022/10/25 14:23:00;;;;;;;31.50;14.93;;;;;;;;;;5104663;28;20028;-69
2022/10/25 14:25:32;;;;;;;30.60;14.38;;;;;;;;;;5087828;28;20409;-69